createdAt,value
2018-10-02T00:00:21.372Z,8.40
2018-10-02T00:01:21.583Z,8.39
2018-10-02T00:02:21.471Z,8.40
2018-10-02T00:03:21.515Z,8.44
2018-10-02T00:04:21.560Z,8.45
2018-10-02T00:05:21.605Z,8.42
2018-10-02T00:06:21.714Z,8.45
2018-10-02T00:07:21.721Z,8.37
2018-10-02T00:08:21.759Z,8.32
2018-10-02T00:09:21.782Z,8.39
2018-10-02T00:10:21.830Z,8.36
2018-10-02T00:11:21.872Z,8.32
2018-10-02T00:12:21.923Z,8.32
2018-10-02T00:13:21.983Z,8.32
2018-10-02T00:14:22.027Z,8.33
2018-10-02T00:15:22.055Z,8.36
2018-10-02T00:16:22.105Z,8.30
2018-10-02T00:17:22.146Z,8.32
2018-10-02T00:18:22.215Z,8.32
2018-10-02T00:19:22.260Z,8.32
2018-10-02T00:20:22.317Z,8.33
2018-10-02T00:21:22.327Z,8.30
2018-10-02T00:22:22.376Z,8.26
2018-10-02T00:23:23.150Z,8.36
2018-10-02T00:24:22.589Z,8.28
2018-10-02T00:25:22.531Z,8.20
2018-10-02T00:26:22.556Z,8.20
2018-10-02T00:27:22.605Z,8.12
2018-10-02T00:28:22.649Z,8.14
2018-10-02T00:29:22.730Z,8.11
2018-10-02T00:30:22.737Z,8.10
2018-10-02T00:31:22.840Z,8.11
2018-10-02T00:32:22.923Z,8.14
2018-10-02T00:33:22.874Z,8.14
2018-10-02T00:34:22.943Z,8.15
2018-10-02T00:35:22.974Z,8.18
2018-10-02T00:36:23.046Z,8.12
2018-10-02T00:37:23.062Z,8.10
2018-10-02T00:38:23.104Z,8.10
2018-10-02T00:39:23.150Z,8.02
2018-10-02T00:40:23.222Z,8.12
2018-10-02T00:41:23.264Z,8.11
2018-10-02T00:42:23.297Z,8.17
2018-10-02T00:43:23.334Z,8.15
2018-10-02T00:44:23.376Z,8.11
2018-10-02T00:45:23.425Z,8.17
2018-10-02T00:46:23.499Z,8.10
2018-10-02T00:47:23.512Z,8.15
2018-10-02T00:48:23.561Z,8.20
2018-10-02T00:49:23.603Z,8.12
2018-10-02T00:50:23.658Z,8.15
2018-10-02T00:51:23.711Z,8.08
2018-10-02T00:52:23.750Z,8.14
2018-10-02T00:53:23.793Z,8.11
2018-10-02T00:54:23.832Z,8.14
2018-10-02T00:55:23.878Z,8.14
2018-10-02T00:56:23.947Z,8.11
2018-10-02T00:57:23.967Z,8.02
2018-10-02T00:58:24.033Z,7.90
2018-10-02T00:59:24.060Z,7.96
2018-10-02T01:00:24.105Z,7.89
2018-10-02T01:01:24.150Z,7.90
2018-10-02T01:02:24.198Z,7.90
2018-10-02T01:03:24.258Z,7.87
2018-10-02T01:04:24.287Z,7.84
2018-10-02T01:05:24.335Z,7.85
2018-10-02T01:06:24.376Z,7.90
2018-10-02T01:07:24.424Z,7.97
2018-10-02T01:08:24.508Z,7.87
2018-10-02T01:09:24.519Z,7.87
2018-10-02T01:10:24.557Z,7.87
2018-10-02T01:11:24.644Z,7.84
2018-10-02T01:12:24.650Z,7.84
2018-10-02T01:13:24.721Z,7.79
2018-10-02T01:14:24.740Z,7.79
2018-10-02T01:15:24.788Z,7.85
2018-10-02T01:16:24.832Z,7.71
2018-10-02T01:17:24.878Z,7.62
2018-10-02T01:18:24.944Z,7.69
2018-10-02T01:19:24.995Z,7.62
2018-10-02T01:20:25.012Z,7.59
2018-10-02T01:21:25.064Z,7.49
2018-10-02T01:22:25.104Z,7.53
2018-10-02T01:23:25.179Z,7.40
2018-10-02T01:24:25.210Z,7.44
2018-10-02T01:25:25.242Z,7.34
2018-10-02T01:26:25.281Z,7.29
2018-10-02T01:27:25.339Z,7.27
2018-10-02T01:28:25.400Z,7.20
2018-10-02T01:29:25.425Z,7.23
2018-10-02T01:30:25.466Z,7.22
2018-10-02T01:31:25.528Z,7.22
2018-10-02T01:32:25.582Z,7.24
2018-10-02T01:33:25.600Z,7.15
2018-10-02T01:34:25.640Z,7.02
2018-10-02T01:35:25.687Z,7.01
2018-10-02T01:36:25.743Z,6.87
2018-10-02T01:37:25.795Z,6.89
2018-10-02T01:38:25.824Z,6.95
2018-10-02T01:39:25.868Z,6.95
2018-10-02T01:40:25.918Z,6.94
2018-10-02T01:41:25.979Z,6.90
2018-10-02T01:42:26.008Z,6.90
2018-10-02T01:43:26.049Z,7.01
2018-10-02T01:44:26.091Z,7.02
2018-10-02T01:45:26.152Z,6.99
2018-10-02T01:46:26.181Z,7.02
2018-10-02T01:47:26.235Z,7.13
2018-10-02T01:48:26.292Z,7.12
2018-10-02T01:49:26.313Z,7.23
2018-10-02T01:50:26.364Z,7.15
2018-10-02T01:51:26.404Z,7.22
2018-10-02T01:52:26.450Z,7.20
2018-10-02T01:53:26.529Z,7.22
2018-10-02T01:54:26.595Z,7.20
2018-10-02T01:55:26.610Z,7.26
2018-10-02T01:56:26.636Z,7.27
2018-10-02T01:57:26.684Z,7.32
2018-10-02T01:58:26.720Z,7.26
2018-10-02T01:59:26.762Z,7.23
2018-10-02T02:00:27.188Z,7.29
2018-10-02T02:01:26.937Z,7.26
2018-10-02T02:02:26.898Z,7.29
2018-10-02T02:03:26.947Z,7.27
2018-10-02T02:04:26.984Z,7.32
2018-10-02T02:05:27.055Z,7.34
2018-10-02T02:06:27.078Z,7.41
2018-10-02T02:07:27.123Z,7.41
2018-10-02T02:08:27.166Z,7.38
2018-10-02T02:09:27.218Z,7.47
2018-10-02T02:10:27.271Z,7.34
2018-10-02T02:11:27.319Z,7.40
2018-10-02T02:12:27.344Z,7.44
2018-10-02T02:13:27.397Z,7.40
2018-10-02T02:14:27.440Z,7.41
2018-10-02T02:15:27.480Z,7.44
2018-10-02T02:16:27.563Z,7.44
2018-10-02T02:17:27.646Z,7.34
2018-10-02T02:18:27.612Z,7.34
2018-10-02T02:19:27.663Z,7.34
2018-10-02T02:20:27.703Z,7.24
2018-10-02T02:21:27.788Z,7.29
2018-10-02T02:22:27.792Z,7.29
2018-10-02T02:23:27.843Z,7.22
2018-10-02T02:24:27.907Z,7.23
2018-10-02T02:25:27.929Z,7.26
2018-10-02T02:26:28.002Z,7.32
2018-10-02T02:27:28.020Z,7.32
2018-10-02T02:28:28.064Z,7.26
2018-10-02T02:29:28.107Z,7.37
2018-10-02T02:30:28.160Z,7.45
2018-10-02T02:31:28.293Z,7.42
2018-10-02T02:32:28.242Z,7.52
2018-10-02T02:33:28.293Z,7.52
2018-10-02T02:34:28.337Z,7.45
2018-10-02T02:35:28.378Z,7.49
2018-10-02T02:36:28.453Z,7.45
2018-10-02T02:37:28.467Z,7.60
2018-10-02T02:38:28.575Z,7.60
2018-10-02T02:39:28.563Z,7.63
2018-10-02T02:40:28.607Z,7.62
2018-10-02T02:41:28.674Z,7.63
2018-10-02T02:42:28.692Z,7.62
2018-10-02T02:43:28.750Z,7.62
2018-10-02T02:44:28.814Z,7.62
2018-10-02T02:45:28.846Z,7.59
2018-10-02T02:46:28.878Z,7.78
2018-10-02T02:47:28.938Z,7.66
2018-10-02T02:48:28.963Z,7.67
2018-10-02T02:49:29.036Z,7.71
2018-10-02T02:50:29.056Z,7.77
2018-10-02T02:51:29.102Z,7.77
2018-10-02T02:52:29.207Z,7.74
2018-10-02T02:53:29.189Z,7.78
2018-10-02T02:54:29.259Z,7.78
2018-10-02T02:55:29.288Z,7.78
2018-10-02T02:56:29.326Z,7.82
2018-10-02T02:57:29.371Z,7.81
2018-10-02T02:58:29.423Z,7.84
2018-10-02T02:59:29.492Z,7.75
2018-10-02T03:00:29.510Z,7.85
2018-10-02T03:01:29.562Z,7.82
2018-10-02T03:02:29.599Z,7.89
2018-10-02T03:03:29.640Z,7.84
2018-10-02T03:04:29.722Z,7.78
2018-10-02T03:05:29.736Z,7.74
2018-10-02T03:06:29.776Z,7.77
2018-10-02T03:07:29.829Z,7.79
2018-10-02T03:08:29.874Z,7.75
2018-10-02T03:09:29.937Z,7.77
2018-10-02T03:10:29.995Z,7.77
2018-10-02T03:11:30.003Z,7.47
2018-10-02T03:12:30.071Z,7.53
2018-10-02T03:13:30.100Z,7.47
2018-10-02T03:14:30.139Z,7.62
2018-10-02T03:15:30.320Z,7.50
2018-10-02T03:16:30.230Z,7.47
2018-10-02T03:17:30.276Z,7.49
2018-10-02T03:18:30.345Z,7.42
2018-10-02T03:19:30.370Z,7.44
2018-10-02T03:20:30.430Z,7.44
2018-10-02T03:21:30.453Z,7.47
2018-10-02T03:22:30.498Z,7.59
2018-10-02T03:23:30.565Z,7.63
2018-10-02T03:24:30.592Z,7.74
2018-10-02T03:25:30.655Z,7.63
2018-10-02T03:26:30.682Z,7.72
2018-10-02T03:27:30.742Z,7.79
2018-10-02T03:28:30.767Z,7.92
2018-10-02T03:29:30.819Z,8.02
2018-10-02T03:30:30.863Z,7.85
2018-10-02T03:31:30.904Z,7.87
2018-10-02T03:32:30.982Z,7.96
2018-10-02T03:33:30.996Z,7.84
2018-10-02T03:34:31.043Z,7.75
2018-10-02T03:35:31.083Z,7.89
2018-10-02T03:36:31.132Z,7.71
2018-10-02T03:37:31.199Z,7.72
2018-10-02T03:38:31.223Z,7.63
2018-10-02T03:39:31.323Z,7.66
2018-10-02T03:40:31.313Z,7.63
2018-10-02T03:41:31.357Z,7.59
2018-10-02T03:42:31.415Z,7.66
2018-10-02T03:43:31.465Z,7.69
2018-10-02T03:44:31.491Z,7.59
2018-10-02T03:45:31.532Z,7.74
2018-10-02T03:46:31.579Z,7.72
2018-10-02T03:47:31.672Z,7.75
2018-10-02T03:48:31.692Z,7.71
2018-10-02T03:49:31.729Z,7.72
2018-10-02T03:50:31.772Z,7.69
2018-10-02T03:51:31.802Z,7.75
2018-10-02T03:52:31.864Z,7.79
2018-10-02T03:53:31.930Z,7.67
2018-10-02T03:54:31.984Z,7.67
2018-10-02T03:55:31.991Z,7.71
2018-10-02T03:56:32.066Z,7.60
2018-10-02T03:57:32.072Z,7.66
2018-10-02T03:58:32.120Z,7.58
2018-10-02T03:59:32.163Z,7.56
2018-10-02T04:00:32.243Z,7.55
2018-10-02T04:01:32.285Z,7.62
2018-10-02T04:02:32.336Z,7.60
2018-10-02T04:03:32.348Z,7.66
2018-10-02T04:04:32.409Z,7.63
2018-10-02T04:05:32.443Z,7.63
2018-10-02T04:06:32.480Z,7.74
2018-10-02T04:07:32.528Z,7.77
2018-10-02T04:08:32.571Z,7.72
2018-10-02T04:09:32.634Z,7.67
2018-10-02T04:10:32.693Z,7.69
2018-10-02T04:11:32.708Z,7.72
2018-10-02T04:12:32.751Z,7.75
2018-10-02T04:13:32.803Z,7.69
2018-10-02T04:14:32.839Z,7.78
2018-10-02T04:15:32.905Z,7.75
2018-10-02T04:16:32.955Z,7.69
2018-10-02T04:17:32.985Z,7.79
2018-10-02T04:18:33.020Z,7.69
2018-10-02T04:19:33.073Z,7.63
2018-10-02T04:20:33.111Z,7.55
2018-10-02T04:21:33.178Z,7.62
2018-10-02T04:22:33.201Z,7.60
2018-10-02T04:23:33.300Z,7.67
2018-10-02T04:24:33.853Z,7.63
2018-10-02T04:25:33.336Z,7.59
2018-10-02T04:26:33.399Z,7.66
2018-10-02T04:27:33.428Z,7.60
2018-10-02T04:28:33.484Z,7.63
2018-10-02T04:29:33.515Z,7.62
2018-10-02T04:30:33.560Z,7.63
2018-10-02T04:31:33.699Z,7.58
2018-10-02T04:32:33.668Z,7.60
2018-10-02T04:33:33.774Z,7.59
2018-10-02T04:34:33.751Z,7.53
2018-10-02T04:35:33.784Z,7.60
2018-10-02T04:36:33.831Z,7.56
2018-10-02T04:37:33.910Z,7.56
2018-10-02T04:38:34.182Z,7.60
2018-10-02T04:39:33.978Z,7.59
2018-10-02T04:40:34.012Z,7.60
2018-10-02T04:41:34.057Z,7.58
2018-10-02T04:42:34.137Z,7.62
2018-10-02T04:43:34.147Z,7.59
2018-10-02T04:44:34.191Z,7.56
2018-10-02T04:45:34.245Z,7.60
2018-10-02T04:46:34.291Z,7.62
2018-10-02T04:47:34.362Z,7.62
2018-10-02T04:48:34.375Z,7.59
2018-10-02T04:49:34.419Z,7.60
2018-10-02T04:50:34.460Z,7.58
2018-10-02T04:51:34.532Z,7.56
2018-10-02T04:52:34.551Z,7.60
2018-10-02T04:53:34.607Z,7.56
2018-10-02T04:54:34.641Z,7.53
2018-10-02T04:55:34.725Z,7.62
2018-10-02T04:56:34.732Z,7.62
2018-10-02T04:57:34.784Z,7.56
2018-10-02T04:58:34.845Z,7.60
2018-10-02T04:59:34.879Z,7.62
2018-10-02T05:00:34.910Z,7.53
2018-10-02T05:01:34.997Z,7.47
2018-10-02T05:02:35.009Z,7.60
2018-10-02T05:03:35.196Z,7.58
2018-10-02T05:04:35.092Z,7.62
2018-10-02T05:05:35.136Z,7.50
2018-10-02T05:06:35.198Z,7.62
2018-10-02T05:07:35.230Z,7.62
2018-10-02T05:08:35.285Z,7.59
2018-10-02T05:09:35.315Z,7.58
2018-10-02T05:10:35.360Z,7.62
2018-10-02T05:11:35.432Z,7.63
2018-10-02T05:12:35.449Z,7.52
2018-10-02T05:13:35.496Z,7.67
2018-10-02T05:14:35.566Z,7.75
2018-10-02T05:15:35.592Z,7.66
2018-10-02T05:16:35.649Z,7.66
2018-10-02T05:17:35.673Z,7.78
2018-10-02T05:18:35.726Z,7.71
2018-10-02T05:19:35.769Z,7.62
2018-10-02T05:20:35.843Z,7.85
2018-10-02T05:21:35.891Z,7.71
2018-10-02T05:22:35.899Z,7.66
2018-10-02T05:23:35.947Z,7.79
2018-10-02T05:24:35.992Z,7.77
2018-10-02T05:25:36.035Z,7.72
2018-10-02T05:26:36.104Z,7.75
2018-10-02T05:27:36.143Z,7.75
2018-10-02T05:28:36.177Z,7.79
2018-10-02T05:29:36.214Z,7.82
2018-10-02T05:30:36.254Z,7.82
2018-10-02T05:31:36.369Z,7.87
2018-10-02T05:32:36.856Z,7.81
2018-10-02T05:33:36.887Z,7.84
2018-10-02T05:34:36.436Z,7.82
2018-10-02T05:35:36.531Z,7.81
2018-10-02T05:36:36.547Z,7.78
2018-10-02T05:37:36.571Z,7.81
2018-10-02T05:38:36.639Z,7.74
2018-10-02T05:39:36.669Z,7.81
2018-10-02T05:40:36.707Z,7.84
2018-10-02T05:41:36.754Z,7.79
2018-10-02T05:42:36.806Z,7.78
2018-10-02T05:43:36.864Z,7.84
2018-10-02T05:44:36.892Z,7.94
2018-10-02T05:45:36.950Z,7.85
2018-10-02T05:46:36.999Z,7.74
2018-10-02T05:47:37.056Z,7.67
2018-10-02T05:48:37.105Z,7.72
2018-10-02T05:49:37.121Z,7.77
2018-10-02T05:50:37.215Z,7.63
2018-10-02T05:51:37.202Z,7.78
2018-10-02T05:52:37.251Z,7.69
2018-10-02T05:53:37.315Z,7.66
2018-10-02T05:54:37.360Z,7.72
2018-10-02T05:55:37.385Z,7.75
2018-10-02T05:56:37.438Z,7.79
2018-10-02T05:57:37.481Z,7.74
2018-10-02T05:58:37.553Z,7.75
2018-10-02T05:59:37.564Z,7.87
2018-10-02T06:00:37.608Z,7.87
2018-10-02T06:01:37.652Z,7.92
2018-10-02T06:02:37.699Z,7.94
2018-10-02T06:03:38.008Z,7.97
2018-10-02T06:04:37.789Z,8.03
2018-10-02T06:05:37.833Z,8.04
2018-10-02T06:06:37.878Z,8.04
2018-10-02T06:07:37.943Z,8.07
2018-10-02T06:08:37.993Z,8.08
2018-10-02T06:09:38.014Z,8.10
2018-10-02T06:10:38.065Z,8.11
2018-10-02T06:11:38.141Z,8.10
2018-10-02T06:12:38.150Z,8.14
2018-10-02T06:13:38.209Z,8.03
2018-10-02T06:14:38.273Z,7.97
2018-10-02T06:15:38.314Z,7.92
2018-10-02T06:16:38.343Z,7.97
2018-10-02T06:17:38.383Z,8.08
2018-10-02T06:18:38.427Z,8.10
2018-10-02T06:19:38.469Z,8.08
2018-10-02T06:20:38.537Z,8.07
2018-10-02T06:21:38.583Z,8.17
2018-10-02T06:22:38.606Z,8.15
2018-10-02T06:23:38.652Z,8.11
2018-10-02T06:24:38.787Z,8.22
2018-10-02T06:25:38.749Z,8.18
2018-10-02T06:26:38.816Z,8.35
2018-10-02T06:27:38.832Z,8.28
2018-10-02T06:28:38.875Z,8.32
2018-10-02T06:29:38.920Z,8.33
2018-10-02T06:30:38.965Z,8.30
2018-10-02T06:31:39.097Z,8.32
2018-10-02T06:32:39.107Z,8.40
2018-10-02T06:33:39.131Z,8.39
2018-10-02T06:34:39.147Z,8.42
2018-10-02T06:35:39.196Z,8.32
2018-10-02T06:36:39.303Z,8.35
2018-10-02T06:37:39.288Z,8.39
2018-10-02T06:38:39.493Z,8.40
2018-10-02T06:39:39.379Z,8.45
2018-10-02T06:40:39.431Z,8.54
2018-10-02T06:41:39.464Z,8.51
2018-10-02T06:42:39.532Z,8.55
2018-10-02T06:43:39.640Z,8.53
2018-10-02T06:44:39.634Z,8.45
2018-10-02T06:45:39.666Z,8.47
2018-10-02T06:46:39.698Z,8.54
2018-10-02T06:47:39.761Z,8.66
2018-10-02T06:48:39.784Z,8.78
2018-10-02T06:49:39.852Z,8.83
2018-10-02T06:50:39.933Z,8.72
2018-10-02T06:51:39.989Z,8.65
2018-10-02T06:52:40.221Z,8.65
2018-10-02T06:53:40.014Z,8.78
2018-10-02T06:54:40.096Z,8.76
2018-10-02T06:55:40.103Z,8.79
2018-10-02T06:56:40.234Z,8.83
2018-10-02T06:57:40.210Z,8.93
2018-10-02T06:58:40.243Z,8.96
2018-10-02T06:59:40.328Z,8.93
2018-10-02T07:00:40.443Z,8.91
2018-10-02T07:01:40.381Z,8.96
2018-10-02T07:02:40.659Z,8.88
2018-10-02T07:03:40.471Z,8.96
2018-10-02T07:04:40.537Z,8.94
2018-10-02T07:05:40.565Z,8.97
2018-10-02T07:06:40.621Z,8.91
2018-10-02T07:07:40.654Z,8.91
2018-10-02T07:08:40.803Z,8.93
2018-10-02T07:09:40.795Z,8.96
2018-10-02T07:10:40.800Z,8.96
2018-10-02T07:11:40.858Z,8.94
2018-10-02T07:12:40.923Z,8.91
2018-10-02T07:13:40.951Z,9.02
2018-10-02T07:14:41.101Z,9.01
2018-10-02T07:15:41.032Z,9.01
2018-10-02T07:16:41.090Z,9.13
2018-10-02T07:17:41.147Z,9.23
2018-10-02T07:18:41.162Z,9.27
2018-10-02T07:19:41.211Z,9.34
2018-10-02T07:20:41.332Z,9.32
2018-10-02T07:21:41.321Z,9.32
2018-10-02T07:22:41.384Z,9.35
2018-10-02T07:23:41.400Z,9.38
2018-10-02T07:24:41.444Z,9.43
2018-10-02T07:25:41.489Z,9.53
2018-10-02T07:26:41.616Z,9.67
2018-10-02T07:27:41.678Z,10.76
2018-10-02T07:28:41.629Z,10.59
2018-10-02T07:29:41.759Z,11.20
2018-10-02T07:30:41.774Z,11.09
2018-10-02T07:31:41.762Z,10.98
2018-10-02T07:32:41.858Z,10.94
2018-10-02T07:33:41.867Z,10.92
2018-10-02T07:34:41.918Z,10.88
2018-10-02T07:35:41.953Z,10.70
2018-10-02T07:36:42.176Z,10.66
2018-10-02T07:37:42.066Z,10.68
2018-10-02T07:38:42.198Z,10.60
2018-10-02T07:39:42.157Z,10.51
2018-10-02T07:40:42.183Z,10.46
2018-10-02T07:41:42.277Z,10.34
2018-10-02T07:42:42.278Z,10.25
2018-10-02T07:43:42.484Z,10.18
2018-10-02T07:44:42.397Z,10.17
2018-10-02T07:45:42.419Z,10.18
2018-10-02T07:46:42.488Z,10.14
2018-10-02T07:47:42.552Z,10.24
2018-10-02T07:48:42.580Z,10.51
2018-10-02T07:49:42.607Z,10.84
2018-10-02T07:50:42.763Z,11.94
2018-10-02T07:51:42.702Z,13.11
2018-10-02T07:52:42.778Z,12.81
2018-10-02T07:53:42.821Z,13.55
2018-10-02T07:54:42.843Z,14.56
2018-10-02T07:55:42.909Z,15.33
2018-10-02T07:56:43.000Z,15.85
2018-10-02T07:57:42.986Z,15.86
2018-10-02T07:58:43.032Z,14.91
2018-10-02T07:59:43.197Z,14.31
2018-10-02T08:00:43.146Z,13.77
2018-10-02T08:01:43.179Z,13.51
2018-10-02T08:02:43.236Z,13.30
2018-10-02T08:03:43.277Z,13.44
2018-10-02T08:04:43.358Z,13.33
2018-10-02T08:05:43.648Z,13.22
2018-10-02T08:06:43.428Z,13.58
2018-10-02T08:07:43.470Z,13.81
2018-10-02T08:08:43.576Z,13.98
2018-10-02T08:09:43.571Z,14.35
2018-10-02T08:10:43.674Z,14.86
2018-10-02T08:11:43.819Z,15.20
2018-10-02T08:12:43.721Z,15.03
2018-10-02T08:13:43.816Z,14.98
2018-10-02T08:14:43.842Z,14.75
2018-10-02T08:15:44.212Z,14.57
2018-10-02T08:16:43.924Z,14.99
2018-10-02T08:17:43.970Z,15.01
2018-10-02T08:18:44.025Z,15.35
2018-10-02T08:19:44.101Z,15.23
2018-10-02T08:20:44.254Z,15.57
2018-10-02T08:21:44.420Z,15.68
2018-10-02T08:22:44.218Z,15.56
2018-10-02T08:23:44.319Z,16.01
2018-10-02T08:24:44.303Z,16.40
2018-10-02T08:25:44.365Z,16.62
2018-10-02T08:26:44.484Z,16.71
2018-10-02T08:27:44.470Z,16.31
2018-10-02T08:28:44.510Z,16.65
2018-10-02T08:29:44.568Z,17.07
2018-10-02T08:30:44.613Z,17.10
2018-10-02T08:31:44.691Z,17.30
2018-10-02T08:32:44.800Z,17.23
2018-10-02T08:33:44.759Z,17.30
2018-10-02T08:34:44.809Z,16.80
2018-10-02T08:35:44.891Z,15.89
2018-10-02T08:36:44.905Z,15.99
2018-10-02T08:37:44.974Z,15.35
2018-10-02T08:38:45.050Z,14.99
2018-10-02T08:39:45.066Z,15.09
2018-10-02T08:40:45.123Z,15.01
2018-10-02T08:41:45.233Z,15.13
2018-10-02T08:42:45.231Z,15.68
2018-10-02T08:43:45.302Z,16.25
2018-10-02T08:44:45.370Z,16.15
2018-10-02T08:45:45.362Z,16.33
2018-10-02T08:46:45.412Z,15.96
2018-10-02T08:47:45.493Z,15.63
2018-10-02T08:48:45.537Z,15.99
2018-10-02T08:49:45.580Z,16.22
2018-10-02T08:50:45.627Z,16.25
2018-10-02T08:51:45.682Z,16.53
2018-10-02T08:52:45.720Z,16.41
2018-10-02T08:53:45.830Z,16.68
2018-10-02T08:54:45.844Z,16.55
2018-10-02T08:55:45.875Z,16.30
2018-10-02T08:56:45.943Z,15.48
2018-10-02T08:57:45.983Z,15.36
2018-10-02T08:58:46.052Z,15.48
2018-10-02T08:59:46.072Z,15.64
2018-10-02T09:00:46.160Z,15.60
2018-10-02T09:01:46.201Z,15.51
2018-10-02T09:02:46.227Z,15.23
2018-10-02T09:03:46.309Z,15.59
2018-10-02T09:04:46.333Z,14.90
2018-10-02T09:05:46.411Z,14.39
2018-10-02T09:06:46.478Z,14.01
2018-10-02T09:07:46.490Z,14.07
2018-10-02T09:08:46.535Z,14.62
2018-10-02T09:09:46.648Z,15.06
2018-10-02T09:10:46.683Z,15.23
2018-10-02T09:11:46.691Z,15.06
2018-10-02T09:12:46.748Z,15.02
2018-10-02T09:13:46.855Z,14.65
2018-10-02T09:14:46.836Z,14.42
2018-10-02T09:15:46.939Z,13.94
2018-10-02T09:16:47.045Z,14.27
2018-10-02T09:17:47.014Z,14.21
2018-10-02T09:18:47.089Z,14.38
2018-10-02T09:19:47.100Z,14.38
2018-10-02T09:20:47.215Z,14.71
2018-10-02T09:21:47.241Z,15.13
2018-10-02T09:22:47.241Z,15.54
2018-10-02T09:23:47.338Z,16.06
2018-10-02T09:24:47.366Z,16.65
2018-10-02T09:25:47.419Z,17.11
2018-10-02T09:26:47.469Z,17.40
2018-10-02T09:27:47.577Z,16.90
2018-10-02T09:28:47.581Z,16.26
2018-10-02T09:29:47.601Z,15.33
2018-10-02T09:30:47.772Z,15.27
2018-10-02T09:31:47.730Z,15.72
2018-10-02T09:32:47.766Z,15.20
2018-10-02T09:33:47.826Z,15.33
2018-10-02T09:34:47.856Z,14.94
2018-10-02T09:35:47.983Z,14.71
2018-10-02T09:36:48.029Z,14.71
2018-10-02T09:37:48.019Z,15.21
2018-10-02T09:38:48.097Z,15.51
2018-10-02T09:39:48.180Z,15.31
2018-10-02T09:40:48.166Z,15.39
2018-10-02T09:41:48.220Z,15.82
2018-10-02T09:42:48.315Z,16.37
2018-10-02T09:43:48.325Z,16.38
2018-10-02T09:44:48.372Z,16.06
2018-10-02T09:45:48.481Z,16.16
2018-10-02T09:46:48.489Z,16.18
2018-10-02T09:47:48.549Z,16.62
2018-10-02T09:48:48.623Z,16.62
2018-10-02T09:49:48.691Z,15.94
2018-10-02T09:50:48.724Z,16.03
2018-10-02T09:51:48.796Z,16.01
2018-10-02T09:52:48.786Z,16.34
2018-10-02T09:53:48.837Z,16.40
2018-10-02T09:54:48.949Z,16.01
2018-10-02T09:55:48.947Z,15.81
2018-10-02T09:56:49.112Z,15.94
2018-10-02T09:57:49.068Z,15.60
2018-10-02T09:58:49.097Z,15.81
2018-10-02T09:59:49.152Z,15.39
2018-10-02T10:00:49.233Z,15.33
2018-10-02T10:01:49.253Z,14.94
2018-10-02T10:02:49.332Z,15.24
2018-10-02T10:03:49.353Z,15.81
2018-10-02T10:04:49.424Z,16.22
2018-10-02T10:05:49.458Z,16.27
2018-10-02T10:06:49.509Z,15.81
2018-10-02T10:07:49.648Z,16.25
2018-10-02T10:08:49.618Z,16.68
2018-10-02T10:09:49.671Z,16.22
2018-10-02T10:10:49.745Z,16.44
2018-10-02T10:11:49.811Z,16.50
2018-10-02T10:12:49.823Z,16.53
2018-10-02T10:13:49.889Z,15.88
2018-10-02T10:14:49.922Z,15.75
2018-10-02T10:15:49.976Z,15.49
2018-10-02T10:16:50.189Z,15.82
2018-10-02T10:17:50.082Z,16.22
2018-10-02T10:18:50.132Z,15.64
2018-10-02T10:19:50.195Z,15.60
2018-10-02T10:20:50.253Z,15.49
2018-10-02T10:21:50.286Z,14.57
2018-10-02T10:22:50.399Z,14.32
2018-10-02T10:23:50.414Z,14.80
2018-10-02T10:24:50.451Z,15.45
2018-10-02T10:25:50.498Z,15.99
2018-10-02T10:26:50.569Z,15.96
2018-10-02T10:27:50.598Z,15.52
2018-10-02T10:28:50.665Z,16.03
2018-10-02T10:29:50.709Z,16.03
2018-10-02T10:30:50.751Z,16.04
2018-10-02T10:31:50.833Z,16.22
2018-10-02T10:32:50.865Z,16.25
2018-10-02T10:33:50.929Z,16.45
2018-10-02T10:34:51.029Z,15.24
2018-10-02T10:35:51.012Z,14.88
2018-10-02T10:36:51.073Z,14.44
2018-10-02T10:37:51.145Z,14.90
2018-10-02T10:38:51.197Z,15.01
2018-10-02T10:39:51.278Z,15.46
2018-10-02T10:40:51.314Z,15.82
2018-10-02T10:41:51.325Z,15.89
2018-10-02T10:42:51.379Z,15.52
2018-10-02T10:43:51.439Z,14.91
2018-10-02T10:44:51.499Z,15.06
2018-10-02T10:45:51.560Z,14.90
2018-10-02T10:46:51.610Z,14.54
2018-10-02T10:47:51.640Z,14.44
2018-10-02T10:48:51.708Z,14.71
2018-10-02T10:49:51.743Z,14.42
2018-10-02T10:50:51.789Z,14.99
2018-10-02T10:51:51.861Z,15.51
2018-10-02T10:52:51.918Z,15.92
2018-10-02T10:53:51.977Z,16.26
2018-10-02T10:54:51.993Z,16.63
2018-10-02T10:55:52.057Z,17.15
2018-10-02T10:56:52.133Z,17.07
2018-10-02T10:57:52.159Z,16.38
2018-10-02T10:58:52.248Z,15.93
2018-10-02T10:59:52.254Z,16.07
2018-10-02T11:00:52.330Z,16.38
2018-10-02T11:01:52.357Z,16.37
2018-10-02T11:02:52.476Z,16.70
2018-10-02T11:03:52.461Z,17.15
2018-10-02T11:04:52.518Z,16.50
2018-10-02T11:05:52.607Z,16.33
2018-10-02T11:06:52.618Z,15.11
2018-10-02T11:07:52.668Z,14.74
2018-10-02T11:08:52.731Z,14.67
2018-10-02T11:09:52.775Z,15.33
2018-10-02T11:10:52.853Z,15.99
2018-10-02T11:11:52.876Z,16.45
2018-10-02T11:12:52.959Z,16.55
2018-10-02T11:13:53.047Z,16.45
2018-10-02T11:14:53.033Z,16.35
2018-10-02T11:15:53.085Z,15.19
2018-10-02T11:16:53.159Z,15.43
2018-10-02T11:17:53.191Z,15.72
2018-10-02T11:18:53.275Z,15.96
2018-10-02T11:19:53.332Z,15.92
2018-10-02T11:20:53.348Z,15.52
2018-10-02T11:21:53.397Z,15.93
2018-10-02T11:22:53.479Z,16.44
2018-10-02T11:23:53.566Z,16.60
2018-10-02T11:24:53.554Z,15.36
2018-10-02T11:25:53.639Z,15.19
2018-10-02T11:26:53.661Z,15.19
2018-10-02T11:27:53.748Z,15.48
2018-10-02T11:28:53.806Z,15.27
2018-10-02T11:29:53.879Z,15.56
2018-10-02T11:30:53.881Z,15.64
2018-10-02T11:31:53.919Z,16.18
2018-10-02T11:32:53.997Z,16.30
2018-10-02T11:33:54.051Z,16.49
2018-10-02T11:34:54.072Z,16.80
2018-10-02T11:35:54.130Z,17.00
2018-10-02T11:36:54.182Z,16.88
2018-10-02T11:37:54.243Z,16.96
2018-10-02T11:38:54.305Z,16.14
2018-10-02T11:39:54.339Z,15.66
2018-10-02T11:40:54.400Z,15.52
2018-10-02T11:41:54.440Z,14.98
2018-10-02T11:42:54.497Z,14.28
2018-10-02T11:43:54.601Z,14.65
2018-10-02T11:44:54.851Z,14.88
2018-10-02T11:45:54.652Z,15.12
2018-10-02T11:46:54.707Z,14.98
2018-10-02T11:47:54.780Z,14.98
2018-10-02T11:48:54.799Z,15.03
2018-10-02T11:49:55.049Z,15.13
2018-10-02T11:50:54.987Z,14.81
2018-10-02T11:51:55.028Z,14.91
2018-10-02T11:52:55.012Z,15.05
2018-10-02T11:53:55.059Z,14.91
2018-10-02T11:54:55.133Z,14.98
2018-10-02T11:55:55.217Z,15.06
2018-10-02T11:56:55.219Z,15.08
2018-10-02T11:57:55.267Z,15.11
2018-10-02T11:58:55.330Z,15.33
2018-10-02T11:59:55.364Z,15.45
2018-10-02T12:00:55.476Z,15.67
2018-10-02T12:01:55.938Z,15.46
2018-10-02T12:02:55.518Z,15.42
2018-10-02T12:03:55.576Z,15.24
2018-10-02T12:04:55.624Z,14.69
2018-10-02T12:05:55.746Z,14.69
2018-10-02T12:06:55.724Z,15.05
2018-10-02T12:07:55.793Z,15.66
2018-10-02T12:08:55.914Z,16.26
2018-10-02T12:09:55.883Z,16.89
2018-10-02T12:10:55.959Z,17.03
2018-10-02T12:11:55.978Z,16.35
2018-10-02T12:12:56.102Z,16.03
2018-10-02T12:13:56.129Z,16.03
2018-10-02T12:14:56.220Z,16.30
2018-10-02T12:15:56.206Z,16.25
2018-10-02T12:16:56.281Z,16.49
2018-10-02T12:17:56.944Z,16.80
2018-10-02T12:18:56.354Z,16.93
2018-10-02T12:19:56.493Z,16.92
2018-10-02T12:20:56.460Z,16.75
2018-10-02T12:21:56.543Z,16.80
2018-10-02T12:22:56.550Z,16.52
2018-10-02T12:23:56.601Z,16.00
2018-10-02T12:24:56.665Z,15.86
2018-10-02T12:25:56.703Z,15.84
2018-10-02T12:26:56.783Z,15.68
2018-10-02T12:27:56.812Z,15.84
2018-10-02T12:28:56.859Z,16.04
2018-10-02T12:29:56.944Z,16.12
2018-10-02T12:30:56.964Z,15.92
2018-10-02T12:31:57.014Z,15.85
2018-10-02T12:32:57.073Z,15.39
2018-10-02T12:33:57.117Z,15.42
2018-10-02T12:34:57.194Z,15.24
2018-10-02T12:35:57.227Z,15.20
2018-10-02T12:36:57.278Z,15.45
2018-10-02T12:37:57.324Z,15.56
2018-10-02T12:38:57.504Z,15.52
2018-10-02T12:39:57.451Z,15.30
2018-10-02T12:40:57.484Z,15.01
2018-10-02T12:41:57.527Z,15.01
2018-10-02T12:42:57.576Z,14.68
2018-10-02T12:43:57.656Z,14.43
2018-10-02T12:44:57.677Z,14.60
2018-10-02T12:45:57.737Z,14.75
2018-10-02T12:46:57.796Z,15.03
2018-10-02T12:47:57.879Z,15.01
2018-10-02T12:48:57.897Z,15.11
2018-10-02T12:49:57.938Z,15.13
2018-10-02T12:50:57.978Z,15.31
2018-10-02T12:51:58.051Z,15.54
2018-10-02T12:52:58.189Z,15.54
2018-10-02T12:53:58.135Z,15.54
2018-10-02T12:54:58.181Z,15.54
2018-10-02T12:55:58.239Z,15.09
2018-10-02T12:56:58.289Z,14.43
2018-10-02T12:57:58.352Z,14.42
2018-10-02T12:58:58.381Z,14.39
2018-10-02T12:59:58.456Z,14.38
2018-10-02T13:00:58.483Z,14.53
2018-10-02T13:01:58.545Z,14.74
2018-10-02T13:02:58.583Z,14.95
2018-10-02T13:03:58.658Z,14.94
2018-10-02T13:04:58.687Z,14.95
2018-10-02T13:05:58.734Z,14.86
2018-10-02T13:06:58.856Z,14.56
2018-10-02T13:07:58.839Z,14.43